Time;durP1;ratioP1;P1;durP2;ratioP2;P2;SDS_P1;SDS_P2;PMS_P1;PMS_P2;Temp;Humidity;BMP_temperature;BMP_pressure;BME280_temperature;BME280_humidity;BME280_pressure;Samples;Min_cycle;Max_cycle;Signal;HPM_P1;HPM_P2
2021/08/20 00:01:57;;;;;;;8.07;6.65;;;15.50;99.90;;;;;;5154470;27;20103;-55
2021/08/20 00:04:22;;;;;;;9.27;5.93;;;15.60;99.90;;;;;;5154433;27;20034;-55
2021/08/20 00:06:48;;;;;;;9.40;6.20;;;15.50;99.90;;;;;;5154445;27;20043;-55
2021/08/20 00:09:14;;;;;;;6.95;6.35;;;15.50;99.90;;;;;;5154328;27;20073;-55
2021/08/20 00:11:40;;;;;;;11.90;6.97;;;15.40;99.90;;;;;;5154275;27;20141;-55
2021/08/20 00:14:08;;;;;;;7.32;6.30;;;15.40;99.90;;;;;;5154309;27;20125;-55
2021/08/20 00:16:34;;;;;;;9.90;6.78;;;15.40;99.90;;;;;;5154207;27;20039;-55
2021/08/20 00:19:01;;;;;;;22.00;7.75;;;15.30;99.90;;;;;;5154237;27;20414;-55
2021/08/20 00:21:29;;;;;;;8.75;6.30;;;15.40;99.90;;;;;;5154059;27;20057;-55
2021/08/20 00:23:54;;;;;;;7.68;6.88;;;15.30;99.90;;;;;;5154122;27;20494;-55
2021/08/20 00:26:20;;;;;;;13.00;7.63;;;15.40;99.90;;;;;;5154108;27;20129;-55
2021/08/20 00:28:46;;;;;;;11.23;8.18;;;15.30;99.90;;;;;;5135598;27;20050;-55
2021/08/20 00:31:12;;;;;;;13.80;8.23;;;15.30;99.90;;;;;;5154269;27;20046;-56
2021/08/20 00:33:37;;;;;;;10.80;8.05;;;15.30;99.90;;;;;;5154051;27;20037;-55
2021/08/20 00:36:04;;;;;;;10.13;7.60;;;15.30;99.90;;;;;;5154129;27;20042;-55
2021/08/20 00:38:32;;;;;;;9.07;6.93;;;15.30;99.90;;;;;;5153849;27;20043;-55
2021/08/20 00:40:57;;;;;;;10.18;7.20;;;15.30;99.90;;;;;;5153938;27;20094;-56
2021/08/20 00:43:25;;;;;;;10.48;7.95;;;15.20;99.90;;;;;;5135022;27;20042;-56
2021/08/20 00:46:01;;;;;;;11.60;8.85;;;15.20;99.90;;;;;;5153591;27;20564;-56
2021/08/20 00:48:28;;;;;;;14.93;8.15;;;15.20;99.90;;;;;;5153701;27;20051;-55
2021/08/20 00:51:07;;;;;;;11.75;7.95;;;15.20;99.90;;;;;;5153898;27;20049;-55
2021/08/20 00:53:36;;;;;;;15.18;9.93;;;15.20;99.90;;;;;;5153687;27;20042;-56
2021/08/20 00:56:03;;;;;;;14.70;9.63;;;15.10;99.90;;;;;;5153583;27;20035;-55
2021/08/20 00:58:31;;;;;;;14.98;10.10;;;15.10;99.90;;;;;;5135549;27;20039;-55
2021/08/20 01:00:57;;;;;;;17.52;11.18;;;15.10;99.90;;;;;;5153674;27;20074;-55
2021/08/20 01:03:27;;;;;;;14.35;10.30;;;15.10;99.90;;;;;;5153817;27;20050;-56
2021/08/20 01:05:54;;;;;;;14.00;10.43;;;15.20;99.90;;;;;;5153714;27;20091;-55
2021/08/20 01:08:24;;;;;;;13.48;10.60;;;15.20;99.90;;;;;;5153467;27;20045;-55
2021/08/20 01:10:52;;;;;;;19.90;10.48;;;15.20;99.90;;;;;;5153723;27;20113;-55
2021/08/20 01:13:18;;;;;;;13.27;11.15;;;15.10;99.90;;;;;;5157638;27;20091;-56
2021/08/20 01:15:45;;;;;;;14.98;11.18;;;15.10;99.90;;;;;;5157992;27;20145;-55
2021/08/20 01:18:25;;;;;;;19.77;11.75;;;15.20;99.90;;;;;;5157780;27;20035;-55
2021/08/20 01:20:53;;;;;;;16.90;11.43;;;15.10;99.90;;;;;;5157812;27;20047;-55
2021/08/20 01:23:21;;;;;;;20.40;12.50;;;15.10;99.90;;;;;;5157820;27;20088;-55
2021/08/20 01:25:46;;;;;;;20.75;13.00;;;15.10;99.90;;;;;;5157852;27;20133;-55
2021/08/20 01:28:12;;;;;;;16.60;11.98;;;15.10;99.90;;;;;;5157553;27;20130;-56
2021/08/20 01:30:38;;;;;;;17.55;11.70;;;15.10;99.90;;;;;;5157379;27;20043;-55
2021/08/20 01:33:04;;;;;;;18.42;13.55;;;15.10;99.90;;;;;;5157385;27;20039;-55
2021/08/20 01:35:30;;;;;;;17.02;13.02;;;15.10;99.90;;;;;;5157568;27;20042;-56
2021/08/20 01:37:56;;;;;;;21.23;14.20;;;15.10;99.90;;;;;;5157563;27;20506;-55
2021/08/20 01:40:22;;;;;;;16.05;12.60;;;15.10;99.90;;;;;;5157586;27;20042;-56
2021/08/20 01:42:48;;;;;;;19.45;13.95;;;15.00;99.90;;;;;;5157396;27;20070;-55
2021/08/20 01:45:14;;;;;;;19.60;13.80;;;15.10;99.90;;;;;;5157221;27;20057;-55
2021/08/20 01:47:40;;;;;;;22.08;15.00;;;15.00;99.90;;;;;;5157265;27;20126;-55
2021/08/20 01:50:07;;;;;;;20.73;14.50;;;15.00;99.90;;;;;;5157043;27;20459;-55
2021/08/20 01:52:33;;;;;;;22.38;16.15;;;15.10;99.90;;;;;;5157279;27;20039;-55
2021/08/20 01:54:59;;;;;;;25.17;18.15;;;15.10;99.90;;;;;;5157276;27;20131;-56
2021/08/20 01:57:25;;;;;;;23.67;15.80;;;15.10;99.90;;;;;;5156936;27;20551;-55
2021/08/20 01:59:50;;;;;;;23.95;16.60;;;15.10;99.90;;;;;;5157032;27;20129;-55
2021/08/20 02:02:16;;;;;;;27.65;17.85;;;15.10;99.90;;;;;;5156936;27;20079;-55
2021/08/20 02:04:42;;;;;;;26.70;18.05;;;15.10;99.90;;;;;;5156909;27;20532;-55
2021/08/20 02:07:08;;;;;;;27.13;18.60;;;15.10;99.90;;;;;;5157077;27;20130;-56
2021/08/20 02:09:34;;;;;;;28.83;18.95;;;15.10;99.90;;;;;;5156994;27;20134;-55
2021/08/20 02:11:59;;;;;;;27.85;19.67;;;15.10;99.90;;;;;;5156744;27;20047;-55
2021/08/20 02:14:25;;;;;;;27.67;19.40;;;15.10;99.90;;;;;;5156734;27;20034;-56
2021/08/20 02:16:51;;;;;;;30.58;19.50;;;15.10;99.90;;;;;;5156444;27;20515;-55
2021/08/20 02:19:16;;;;;;;35.70;19.83;;;15.00;99.90;;;;;;5156563;27;20075;-55
2021/08/20 02:21:42;;;;;;;25.30;19.00;;;15.10;99.90;;;;;;5156774;27;20042;-55
2021/08/20 02:24:08;;;;;;;29.73;20.15;;;15.10;99.90;;;;;;5156340;27;20133;-55
2021/08/20 02:26:33;;;;;;;27.50;20.10;;;15.10;99.90;;;;;;5156781;27;20039;-56
2021/08/20 02:28:59;;;;;;;27.48;19.65;;;15.00;99.90;;;;;;5156162;27;20500;-55
2021/08/20 02:31:25;;;;;;;31.30;20.60;;;15.00;99.90;;;;;;5156269;27;20038;-55
2021/08/20 02:33:50;;;;;;;36.20;22.15;;;15.00;99.90;;;;;;5156305;27;20053;-55
2021/08/20 02:36:16;;;;;;;31.13;21.65;;;15.00;99.90;;;;;;5156373;27;20045;-55
2021/08/20 02:38:42;;;;;;;32.80;20.92;;;15.00;99.90;;;;;;5156356;27;20440;-55
2021/08/20 02:41:09;;;;;;;28.42;20.35;;;14.90;99.90;;;;;;5156281;27;20387;-56
2021/08/20 02:43:34;;;;;;;35.53;21.63;;;14.90;99.90;;;;;;5156197;27;20045;-55
2021/08/20 02:46:00;;;;;;;39.53;22.00;;;14.90;99.90;;;;;;5155963;27;20030;-56
2021/08/20 02:48:26;;;;;;;27.23;21.30;;;14.90;99.90;;;;;;5156054;27;20039;-56
2021/08/20 02:50:52;;;;;;;39.70;21.48;;;14.90;99.90;;;;;;5156205;27;20039;-56
2021/08/20 02:53:18;;;;;;;32.83;22.52;;;14.80;99.90;;;;;;5137147;27;20065;-55
2021/08/20 02:55:43;;;;;;;31.45;22.98;;;14.90;99.90;;;;;;5156128;27;20042;-56
2021/08/20 02:58:09;;;;;;;29.35;22.00;;;14.80;99.90;;;;;;5155698;27;20049;-55
2021/08/20 03:00:35;;;;;;;33.75;22.73;;;14.80;99.90;;;;;;5155991;27;20130;-55
2021/08/20 03:03:00;;;;;;;35.55;23.70;;;14.80;99.90;;;;;;5155672;27;20038;-55
2021/08/20 03:05:27;;;;;;;32.58;22.55;;;14.80;99.90;;;;;;5155942;27;20415;-55
2021/08/20 03:07:52;;;;;;;32.17;23.55;;;14.80;99.90;;;;;;5155969;27;20042;-55
2021/08/20 03:10:18;;;;;;;32.42;23.33;;;14.80;99.90;;;;;;5155861;27;20515;-55
2021/08/20 03:12:44;;;;;;;36.78;23.88;;;14.80;99.90;;;;;;5155547;27;20126;-55
2021/08/20 03:15:10;;;;;;;31.48;23.48;;;14.80;99.90;;;;;;5155585;27;20129;-55
2021/08/20 03:17:35;;;;;;;36.95;26.55;;;14.80;99.90;;;;;;5155500;27;20035;-55
2021/08/20 03:20:02;;;;;;;36.95;24.25;;;14.80;99.90;;;;;;5155352;27;20075;-55
2021/08/20 03:22:27;;;;;;;37.03;24.35;;;14.70;99.90;;;;;;5155438;27;20436;-55
2021/08/20 03:24:53;;;;;;;34.85;24.23;;;14.80;99.90;;;;;;5155435;27;20046;-55
2021/08/20 03:27:19;;;;;;;34.92;25.05;;;14.70;99.90;;;;;;5155253;27;20047;-55
2021/08/20 03:29:45;;;;;;;42.33;27.38;;;14.80;99.90;;;;;;5155300;27;20053;-55
2021/08/20 03:32:11;;;;;;;37.10;26.58;;;14.70;99.90;;;;;;5155170;27;20053;-55
2021/08/20 03:34:36;;;;;;;41.83;27.73;;;14.70;99.90;;;;;;5154725;27;20400;-55
2021/08/20 03:37:02;;;;;;;41.33;28.05;;;14.80;99.90;;;;;;5155229;27;20049;-56
2021/08/20 03:39:28;;;;;;;35.38;24.40;;;14.80;99.90;;;;;;5155215;27;20046;-55
2021/08/20 03:41:54;;;;;;;35.92;26.75;;;14.70;99.90;;;;;;5154932;27;20400;-56
2021/08/20 03:44:20;;;;;;;35.80;25.40;;;14.70;99.90;;;;;;5155044;27;20380;-56
2021/08/20 03:46:45;;;;;;;37.30;26.58;;;14.70;99.90;;;;;;5155182;27;20046;-56
2021/08/20 03:49:12;;;;;;;40.15;26.80;;;14.80;99.90;;;;;;5155081;27;20057;-55
2021/08/20 03:51:37;;;;;;;38.55;25.85;;;14.70;99.90;;;;;;5155076;27;20042;-55
2021/08/20 03:54:03;;;;;;;36.75;26.98;;;14.80;99.90;;;;;;5154788;27;20057;-55
2021/08/20 03:56:29;;;;;;;43.67;29.17;;;14.80;99.90;;;;;;5154725;27;20039;-56
2021/08/20 03:58:58;;;;;;;31.60;24.23;;;14.70;99.90;;;;;;5154485;27;20045;-56
2021/08/20 04:01:24;;;;;;;38.42;26.38;;;14.70;99.90;;;;;;5154523;27;20039;-55
2021/08/20 04:03:50;;;;;;;40.42;27.02;;;14.70;99.90;;;;;;5154700;27;20038;-55
2021/08/20 04:06:16;;;;;;;39.00;27.70;;;14.70;99.90;;;;;;5154697;27;20053;-56
2021/08/20 04:08:42;;;;;;;41.75;26.80;;;14.70;99.90;;;;;;5154536;27;20035;-55
2021/08/20 04:11:11;;;;;;;38.50;26.92;;;14.70;99.90;;;;;;5154571;27;20492;-55
2021/08/20 04:13:38;;;;;;;42.75;28.10;;;14.70;99.90;;;;;;5154220;27;20069;-55
2021/08/20 04:16:04;;;;;;;45.30;29.38;;;14.70;99.90;;;;;;5154643;27;20046;-56
2021/08/20 04:18:30;;;;;;;35.45;26.20;;;14.70;99.90;;;;;;5154284;27;20034;-56
2021/08/20 04:20:55;;;;;;;41.88;26.60;;;14.70;99.90;;;;;;5154459;27;20045;-57
2021/08/20 04:23:21;;;;;;;42.03;28.65;;;14.70;99.90;;;;;;5154345;27;20125;-58
2021/08/20 04:25:47;;;;;;;45.42;27.25;;;14.70;99.90;;;;;;5154119;27;20050;-60
2021/08/20 04:28:13;;;;;;;50.65;31.23;;;14.70;99.90;;;;;;5154017;27;20404;-62
2021/08/20 04:30:39;;;;;;;41.10;29.23;;;14.70;99.90;;;;;;5154143;27;20464;-56
2021/08/20 04:33:05;;;;;;;39.55;27.90;;;14.70;99.90;;;;;;5154051;27;20035;-55
2021/08/20 04:35:32;;;;;;;35.22;26.45;;;14.70;99.90;;;;;;5153926;27;20077;-56
2021/08/20 04:37:58;;;;;;;35.88;25.70;;;14.70;99.90;;;;;;5154110;27;20404;-56
2021/08/20 04:40:24;;;;;;;42.47;26.88;;;14.70;99.90;;;;;;5153906;27;20043;-56
2021/08/20 04:42:50;;;;;;;43.42;28.38;;;14.70;99.90;;;;;;5153865;27;20536;-55
2021/08/20 04:45:16;;;;;;;37.30;27.75;;;14.60;99.90;;;;;;5153931;27;20126;-56
2021/08/20 04:47:43;;;;;;;47.30;29.42;;;14.60;99.90;;;;;;5153830;27;20031;-56
2021/08/20 04:50:09;;;;;;;37.70;28.10;;;14.70;99.90;;;;;;5147938;27;20043;-56
2021/08/20 04:52:35;;;;;;;53.72;30.20;;;14.60;99.90;;;;;;5133168;27;20047;-55
2021/08/20 04:55:01;;;;;;;34.45;25.83;;;14.60;99.90;;;;;;5133040;27;20473;-55
2021/08/20 04:57:27;;;;;;;45.97;28.08;;;14.60;99.90;;;;;;5133109;27;20043;-56
2021/08/20 04:59:56;;;;;;;36.42;26.48;;;14.60;99.90;;;;;;5133130;27;20063;-56
2021/08/20 05:02:22;;;;;;;39.15;28.58;;;14.60;99.90;;;;;;5133199;27;20549;-56
2021/08/20 05:04:48;;;;;;;41.72;27.88;;;14.60;99.90;;;;;;5133172;27;20173;-56
2021/08/20 05:07:14;;;;;;;34.58;26.75;;;14.60;99.90;;;;;;5132969;28;20075;-55
2021/08/20 05:09:40;;;;;;;36.95;26.98;;;14.70;99.90;;;;;;5133126;28;20085;-56
2021/08/20 05:12:08;;;;;;;38.97;28.75;;;14.70;99.90;;;;;;5132596;28;20362;-56
2021/08/20 05:14:34;;;;;;;39.60;28.30;;;14.70;99.90;;;;;;5133057;28;20821;-56
2021/08/20 05:16:59;;;;;;;40.35;27.63;;;14.80;99.90;;;;;;5132824;28;20088;-55
2021/08/20 05:19:25;;;;;;;38.58;28.17;;;14.80;99.90;;;;;;5132651;28;20741;-56
2021/08/20 05:21:51;;;;;;;41.80;27.85;;;14.80;99.90;;;;;;5132662;28;20437;-56
2021/08/20 05:24:17;;;;;;;41.72;28.25;;;14.90;99.90;;;;;;5132669;28;20424;-56
2021/08/20 05:26:43;;;;;;;40.72;28.73;;;15.00;99.90;;;;;;5132706;28;20354;-55
2021/08/20 05:29:09;;;;;;;46.30;30.15;;;15.00;99.90;;;;;;5113786;28;20443;-56
2021/08/20 05:31:34;;;;;;;48.42;30.65;;;15.00;99.90;;;;;;5132700;28;20051;-55
2021/08/20 05:34:00;;;;;;;43.40;29.48;;;15.10;99.90;;;;;;5132614;28;20400;-56
2021/08/20 05:36:27;;;;;;;47.00;29.63;;;15.10;99.90;;;;;;5132759;28;20056;-56
2021/08/20 05:38:53;;;;;;;43.53;29.85;;;15.20;99.90;;;;;;5132273;28;20469;-56
2021/08/20 05:41:19;;;;;;;44.72;29.05;;;15.30;99.90;;;;;;5134300;27;20046;-56
2021/08/20 05:43:45;;;;;;;48.20;30.75;;;15.40;99.90;;;;;;5152069;27;20043;-56
2021/08/20 05:46:10;;;;;;;43.72;30.27;;;15.40;99.90;;;;;;5164240;27;20045;-56
2021/08/20 05:48:36;;;;;;;42.00;29.63;;;15.40;99.90;;;;;;5163302;27;20030;-58
2021/08/20 05:51:02;;;;;;;54.70;31.15;;;15.40;99.90;;;;;;5162214;27;20040;-59
2021/08/20 05:53:28;;;;;;;46.25;29.63;;;15.40;99.90;;;;;;5163967;27;20065;-59
2021/08/20 05:55:54;;;;;;;41.88;29.98;;;15.40;99.90;;;;;;5160671;27;20043;-59
2021/08/20 05:58:19;;;;;;;43.53;29.50;;;15.50;99.90;;;;;;5164374;27;20045;-59
2021/08/20 06:00:45;;;;;;;40.35;28.30;;;15.50;99.90;;;;;;5168074;27;20045;-59
2021/08/20 06:03:21;;;;;;;43.35;29.02;;;15.50;99.90;;;;;;5163548;27;20045;-59
2021/08/20 06:05:48;;;;;;;43.30;29.73;;;15.60;99.90;;;;;;5166477;27;20045;-56
2021/08/20 06:08:15;;;;;;;40.67;28.58;;;15.60;99.90;;;;;;5166271;27;20472;-56
2021/08/20 06:10:44;;;;;;;39.17;27.73;;;15.70;99.90;;;;;;5171438;27;20034;-56
2021/08/20 06:13:11;;;;;;;41.72;30.15;;;15.70;99.90;;;;;;5177428;27;20042;-56
2021/08/20 06:15:38;;;;;;;38.38;29.08;;;15.70;99.90;;;;;;5177333;27;20054;-56
2021/08/20 06:18:04;;;;;;;38.08;29.52;;;15.70;99.90;;;;;;5158764;27;20094;-56
2021/08/20 06:20:30;;;;;;;38.85;28.67;;;15.80;99.90;;;;;;5177210;27;20469;-56
2021/08/20 06:22:56;;;;;;;40.22;28.67;;;15.80;99.90;;;;;;5149897;27;20134;-56
2021/08/20 06:25:22;;;;;;;43.13;29.77;;;15.80;99.90;;;;;;5135825;27;20043;-57
2021/08/20 06:27:48;;;;;;;38.67;27.90;;;15.80;99.90;;;;;;5135780;27;20154;-57
2021/08/20 06:30:14;;;;;;;39.60;27.58;;;15.80;99.90;;;;;;5171083;27;20065;-56
2021/08/20 06:32:39;;;;;;;36.45;28.25;;;15.80;99.90;;;;;;5177424;27;20403;-56
2021/08/20 06:35:05;;;;;;;36.13;27.48;;;15.80;99.90;;;;;;5151008;27;20053;-57
2021/08/20 06:37:31;;;;;;;46.55;30.42;;;16.00;99.90;;;;;;5156519;27;20038;-56
2021/08/20 06:39:57;;;;;;;41.90;29.55;;;16.10;99.90;;;;;;5156482;27;20049;-56
2021/08/20 06:42:23;;;;;;;45.75;30.50;;;16.10;99.90;;;;;;5155381;27;20038;-57
2021/08/20 06:44:49;;;;;;;44.05;29.15;;;16.20;99.90;;;;;;5155553;27;20179;-56
2021/08/20 06:47:15;;;;;;;38.47;29.90;;;16.20;99.90;;;;;;5154982;27;20530;-56
2021/08/20 06:49:41;;;;;;;52.92;32.38;;;16.40;99.90;;;;;;5154496;27;20045;-56
2021/08/20 06:52:10;;;;;;;46.33;32.95;;;16.60;99.90;;;;;;5154313;27;20039;-56
2021/08/20 06:54:36;;;;;;;44.58;32.45;;;16.60;99.90;;;;;;5154335;27;20059;-56
2021/08/20 06:57:02;;;;;;;41.08;30.30;;;16.60;99.90;;;;;;5154482;27;20043;-56
2021/08/20 06:59:28;;;;;;;46.00;31.75;;;16.70;99.90;;;;;;5155850;27;20058;-56
2021/08/20 07:01:54;;;;;;;47.03;31.98;;;16.70;99.90;;;;;;5155583;27;20043;-57
2021/08/20 07:04:19;;;;;;;37.00;28.85;;;16.70;99.90;;;;;;5155552;27;20046;-57
2021/08/20 07:06:45;;;;;;;42.20;30.20;;;16.70;99.90;;;;;;5155516;27;20039;-56
2021/08/20 07:09:11;;;;;;;36.88;30.25;;;16.70;99.90;;;;;;5154603;27;20046;-56
2021/08/20 07:11:39;;;;;;;40.47;29.67;;;16.70;99.90;;;;;;5155417;27;20046;-56
2021/08/20 07:14:05;;;;;;;38.53;29.63;;;16.80;99.90;;;;;;5155494;27;20043;-56
2021/08/20 07:16:31;;;;;;;43.35;31.48;;;16.80;99.90;;;;;;5155388;27;20045;-56
2021/08/20 07:18:56;;;;;;;39.75;31.52;;;16.90;99.90;;;;;;5155257;27;20049;-56
2021/08/20 07:21:22;;;;;;;48.65;31.95;;;17.00;99.90;;;;;;5155466;27;20095;-56
2021/08/20 07:23:48;;;;;;;40.00;30.38;;;17.00;99.90;;;;;;5155328;27;20035;-56
2021/08/20 07:26:15;;;;;;;37.67;29.67;;;17.10;99.90;;;;;;5155268;27;20389;-56
2021/08/20 07:28:40;;;;;;;39.75;31.27;;;17.30;99.90;;;;;;5154950;27;20074;-56
2021/08/20 07:31:06;;;;;;;40.53;29.25;;;17.40;99.90;;;;;;5155241;27;20496;-56
2021/08/20 07:33:33;;;;;;;36.00;30.13;;;17.40;99.90;;;;;;5154718;27;20091;-56
2021/08/20 07:35:59;;;;;;;39.30;30.80;;;17.40;99.90;;;;;;5155342;27;20046;-56
2021/08/20 07:38:25;;;;;;;40.58;30.60;;;17.50;99.90;;;;;;5155234;27;20038;-56
2021/08/20 07:40:51;;;;;;;42.42;31.30;;;17.50;99.90;;;;;;5155245;27;20046;-56
2021/08/20 07:43:17;;;;;;;39.25;29.33;;;17.60;99.90;;;;;;5154904;27;20408;-56
2021/08/20 07:45:43;;;;;;;32.92;29.02;;;17.70;99.90;;;;;;5154785;27;20053;-56
2021/08/20 07:48:09;;;;;;;39.33;32.13;;;17.70;99.90;;;;;;5154668;27;20077;-55
2021/08/20 07:50:35;;;;;;;42.30;32.28;;;17.90;99.90;;;;;;5154798;27;20058;-56
2021/08/20 07:53:01;;;;;;;42.42;32.58;;;17.80;99.90;;;;;;5154768;27;20088;-56
2021/08/20 07:55:27;;;;;;;38.70;31.73;;;17.90;99.90;;;;;;5154706;27;20039;-56
2021/08/20 07:57:54;;;;;;;36.28;29.08;;;17.90;99.90;;;;;;5154477;27;20412;-56
2021/08/20 08:00:27;;;;;;;39.20;29.23;;;17.90;99.90;;;;;;5154476;27;20091;-56
2021/08/20 08:02:54;;;;;;;37.85;30.30;;;17.90;99.90;;;;;;5154517;27;20091;-56
2021/08/20 08:05:21;;;;;;;41.08;31.50;;;17.90;99.90;;;;;;5154615;27;20051;-56
2021/08/20 08:07:47;;;;;;;37.63;30.58;;;18.00;99.90;;;;;;5154348;27;20503;-56
2021/08/20 08:10:14;;;;;;;37.63;31.48;;;18.00;99.90;;;;;;5154312;27;20073;-56
2021/08/20 08:12:41;;;;;;;38.00;29.67;;;18.00;99.90;;;;;;5154419;27;20081;-55
2021/08/20 08:15:09;;;;;;;38.55;28.95;;;18.00;99.90;;;;;;5154190;27;20070;-56
2021/08/20 08:17:36;;;;;;;37.00;28.90;;;18.10;99.90;;;;;;5154197;27;20034;-56
2021/08/20 08:20:04;;;;;;;36.50;30.52;;;18.20;99.90;;;;;;5153901;27;20043;-55
2021/08/20 08:22:30;;;;;;;37.17;28.30;;;18.30;99.90;;;;;;5154472;27;20041;-56
2021/08/20 08:24:56;;;;;;;34.80;29.00;;;18.40;99.90;;;;;;5154201;27;20133;-56
2021/08/20 08:27:22;;;;;;;33.03;27.33;;;18.70;99.90;;;;;;5153958;27;20050;-56
2021/08/20 08:29:47;;;;;;;32.13;28.73;;;18.80;99.90;;;;;;5154077;27;20099;-56
2021/08/20 08:32:13;;;;;;;30.05;26.38;;;18.90;99.90;;;;;;5154061;27;20038;-56
2021/08/20 08:34:39;;;;;;;34.10;26.35;;;19.00;99.90;;;;;;5153817;27;20070;-56
2021/08/20 08:37:06;;;;;;;31.48;25.55;;;19.10;99.90;;;;;;5154000;27;20066;-56
2021/08/20 08:39:32;;;;;;;32.40;25.15;;;19.10;99.90;;;;;;5153905;27;20043;-55
2021/08/20 08:41:59;;;;;;;29.38;24.92;;;19.10;99.90;;;;;;5153868;27;20045;-56
2021/08/20 08:44:25;;;;;;;29.23;24.98;;;19.10;99.90;;;;;;5153717;27;20035;-56
2021/08/20 08:46:51;;;;;;;30.45;23.95;;;19.00;99.90;;;;;;5153841;27;20106;-56
2021/08/20 08:49:22;;;;;;;31.15;25.10;;;19.10;99.90;;;;;;5153816;27;20038;-56
2021/08/20 08:51:48;;;;;;;29.90;24.75;;;19.10;99.90;;;;;;5153594;27;20096;-55
2021/08/20 08:54:15;;;;;;;35.08;26.65;;;19.00;99.90;;;;;;5153748;27;20170;-56
2021/08/20 08:56:45;;;;;;;30.52;24.98;;;19.10;99.90;;;;;;5153850;27;20043;-56
2021/08/20 08:59:11;;;;;;;34.42;26.90;;;19.00;99.90;;;;;;5153547;27;20547;-56
2021/08/20 09:01:40;;;;;;;36.85;29.00;;;18.90;99.90;;;;;;5153711;27;20038;-56
2021/08/20 09:04:10;;;;;;;31.42;27.92;;;18.80;99.90;;;;;;5153725;27;20039;-56
2021/08/20 09:06:44;;;;;;;34.35;28.27;;;18.80;99.90;;;;;;5153728;27;20101;-56
2021/08/20 09:09:16;;;;;;;28.30;25.30;;;18.80;99.90;;;;;;5153428;27;20035;-56
2021/08/20 09:11:43;;;;;;;32.70;27.33;;;19.00;99.90;;;;;;5153532;27;20050;-55
2021/08/20 09:14:10;;;;;;;31.77;27.15;;;19.00;99.90;;;;;;5153443;27;20038;-55
2021/08/20 09:16:37;;;;;;;34.42;27.52;;;19.10;99.90;;;;;;5153555;27;20043;-55
2021/08/20 09:19:12;;;;;;;31.77;26.85;;;19.10;99.90;;;;;;5153434;27;20039;-55
2021/08/20 09:21:39;;;;;;;29.92;26.63;;;19.10;99.90;;;;;;5153708;27;20070;-55
2021/08/20 09:24:39;;;;;;;29.58;25.70;;;19.00;99.90;;;;;;5134681;27;20130;-56
2021/08/20 09:27:14;;;;;;;31.85;26.25;;;19.10;99.90;;;;;;5153135;27;20062;-55
2021/08/20 09:29:58;;;;;;;30.27;27.10;;;19.10;99.90;;;;;;5153359;27;20035;-55
2021/08/20 09:32:25;;;;;;;30.20;25.55;;;19.10;99.90;;;;;;5153961;27;20042;-56
2021/08/20 09:34:54;;;;;;;30.98;25.58;;;19.10;99.90;;;;;;5157493;27;20039;-56
2021/08/20 09:37:21;;;;;;;26.50;22.02;;;19.20;99.90;;;;;;5157593;27;20045;-56
2021/08/20 09:39:47;;;;;;;24.58;22.10;;;19.20;99.90;;;;;;5157294;27;20039;-55
2021/08/20 09:42:17;;;;;;;27.30;22.67;;;19.10;99.90;;;;;;5157373;27;20042;-56
2021/08/20 09:44:42;;;;;;;26.70;22.98;;;19.10;99.90;;;;;;5138654;27;20488;-56
2021/08/20 09:47:09;;;;;;;27.77;23.42;;;19.10;99.90;;;;;;5157222;27;20134;-56
2021/08/20 09:49:58;;;;;;;29.45;25.75;;;19.20;99.90;;;;;;5157104;27;20035;-56
2021/08/20 09:52:29;;;;;;;32.50;24.77;;;19.40;99.90;;;;;;5156987;27;20039;-56
2021/08/20 09:54:55;;;;;;;31.20;23.65;;;19.50;99.90;;;;;;5157250;27;20150;-56
2021/08/20 09:57:25;;;;;;;29.63;25.13;;;19.50;99.90;;;;;;5157046;27;20065;-56
2021/08/20 09:59:57;;;;;;;30.33;24.70;;;19.60;99.90;;;;;;5157210;27;20091;-56
2021/08/20 10:02:28;;;;;;;29.98;24.23;;;19.60;99.90;;;;;;5156869;27;20043;-56
2021/08/20 10:04:58;;;;;;;27.48;24.48;;;19.90;99.90;;;;;;5156858;27;20039;-56
2021/08/20 10:07:26;;;;;;;29.90;23.27;;;20.20;99.90;;;;;;5156863;27;20049;-56
2021/08/20 10:09:55;;;;;;;27.57;23.13;;;20.20;99.90;;;;;;5156693;27;20066;-56
2021/08/20 10:12:24;;;;;;;28.35;23.13;;;20.30;99.90;;;;;;5138371;27;20307;-56
2021/08/20 10:14:51;;;;;;;25.15;22.17;;;20.40;99.90;;;;;;5156732;27;20045;-56
2021/08/20 10:17:17;;;;;;;28.38;22.58;;;20.60;99.90;;;;;;5156569;27;20039;-56
2021/08/20 10:19:50;;;;;;;29.38;23.58;;;20.90;99.90;;;;;;5155753;27;20031;-56
2021/08/20 10:22:18;;;;;;;27.08;22.30;;;21.00;99.90;;;;;;5147638;27;20042;-56
2021/08/20 10:24:44;;;;;;;31.02;22.05;;;21.20;99.90;;;;;;5141683;27;20142;-56
2021/08/20 10:27:11;;;;;;;27.52;20.17;;;21.30;99.90;;;;;;5138559;27;20118;-56
2021/08/20 10:29:40;;;;;;;23.45;19.85;;;21.30;99.90;;;;;;5149389;27;20031;-56
2021/08/20 10:32:08;;;;;;;21.92;18.40;;;21.40;99.90;;;;;;5146258;27;20071;-56
2021/08/20 10:34:39;;;;;;;23.90;19.27;;;21.50;99.90;;;;;;5156465;27;20038;-56
2021/08/20 10:37:24;;;;;;;26.52;20.95;;;21.50;99.90;;;;;;5156427;27;20548;-56
2021/08/20 10:39:53;;;;;;;26.17;21.33;;;21.40;99.90;;;;;;5156427;27;20436;-56
2021/08/20 10:42:21;;;;;;;26.73;21.55;;;21.40;99.90;;;;;;5156511;27;20038;-56
2021/08/20 10:45:02;;;;;;;22.60;18.95;;;21.30;99.90;;;;;;5156198;27;20066;-56
2021/08/20 10:47:28;;;;;;;26.42;18.33;;;21.40;99.90;;;;;;5156291;27;20109;-56
2021/08/20 10:50:16;;;;;;;19.58;17.25;;;21.60;99.90;;;;;;5156172;27;20058;-56
2021/08/20 10:52:50;;;;;;;24.05;17.38;;;21.90;99.90;;;;;;5143774;27;20031;-56
2021/08/20 10:55:22;;;;;;;20.23;16.75;;;22.10;99.90;;;;;;5153502;27;20035;-56
2021/08/20 10:57:49;;;;;;;19.55;15.95;;;22.00;99.90;;;;;;5156051;27;20053;-56
2021/08/20 11:00:20;;;;;;;19.35;15.02;;;22.10;99.90;;;;;;5156187;27;20041;-56
2021/08/20 11:02:53;;;;;;;17.63;13.75;;;22.00;99.90;;;;;;5155971;27;20064;-56
2021/08/20 11:05:34;;;;;;;24.50;15.40;;;21.90;99.90;;;;;;5152643;27;20027;-56
2021/08/20 11:08:00;;;;;;;24.73;16.58;;;21.60;99.90;;;;;;5165192;27;20053;-56
2021/08/20 11:10:26;;;;;;;23.45;17.63;;;21.60;99.90;;;;;;5176471;27;20042;-56
2021/08/20 11:12:53;;;;;;;19.20;16.30;;;21.40;99.90;;;;;;5156047;27;20038;-56
2021/08/20 11:15:27;;;;;;;19.58;15.48;;;21.20;99.90;;;;;;5137420;27;20042;-56
2021/08/20 11:18:06;;;;;;;20.05;13.95;;;21.10;99.90;;;;;;5143501;27;20430;-56
2021/08/20 11:20:41;;;;;;;18.67;14.18;;;21.00;99.90;;;;;;5141401;27;20122;-56
2021/08/20 11:23:10;;;;;;;20.98;16.13;;;20.90;99.90;;;;;;5153929;27;20046;-56
2021/08/20 11:25:39;;;;;;;19.30;14.70;;;20.80;99.90;;;;;;5153995;27;20074;-56
2021/08/20 11:28:31;;;;;;;16.15;14.25;;;20.80;99.90;;;;;;5154297;27;20058;-56
2021/08/20 11:31:10;;;;;;;21.58;14.27;;;20.80;99.90;;;;;;5154405;27;20033;-56
2021/08/20 11:33:47;;;;;;;19.85;14.57;;;20.70;99.90;;;;;;5155469;27;20042;-56
2021/08/20 11:36:17;;;;;;;19.85;13.88;;;20.70;99.90;;;;;;5155206;27;20042;-56
2021/08/20 11:38:43;;;;;;;18.15;13.85;;;20.60;99.90;;;;;;5155052;27;20039;-56
2021/08/20 11:41:25;;;;;;;20.77;14.68;;;20.60;99.90;;;;;;5155003;27;20038;-56
2021/08/20 11:43:57;;;;;;;20.52;14.90;;;20.50;99.90;;;;;;5154935;27;20152;-56
2021/08/20 11:46:28;;;;;;;18.98;15.38;;;20.40;99.90;;;;;;5154848;27;20067;-56
2021/08/20 11:48:56;;;;;;;20.38;15.00;;;20.30;99.90;;;;;;5154739;27;20042;-56
2021/08/20 11:51:25;;;;;;;26.42;16.98;;;20.20;99.90;;;;;;5154857;27;20050;-56
2021/08/20 11:53:51;;;;;;;21.67;15.23;;;20.20;99.90;;;;;;5154474;27;20046;-56
2021/08/20 11:56:17;;;;;;;22.40;15.45;;;20.20;99.90;;;;;;5135045;27;20499;-56
2021/08/20 11:58:44;;;;;;;19.67;15.70;;;20.30;99.90;;;;;;5154657;27;20062;-56
2021/08/20 12:01:32;;;;;;;18.48;15.40;;;20.40;99.90;;;;;;5154528;27;20034;-56
2021/08/20 12:03:59;;;;;;;15.95;14.23;;;20.40;99.90;;;;;;5154607;27;20365;-56
2021/08/20 12:06:27;;;;;;;16.63;14.77;;;20.50;99.90;;;;;;5154360;27;20038;-56
2021/08/20 12:08:56;;;;;;;20.65;14.23;;;20.60;99.90;;;;;;5154405;27;20045;-56
2021/08/20 12:11:24;;;;;;;18.63;14.80;;;20.70;99.90;;;;;;5154206;27;20030;-56
2021/08/20 12:13:53;;;;;;;18.25;15.75;;;20.80;99.90;;;;;;5154596;27;20046;-56
2021/08/20 12:16:39;;;;;;;15.55;12.60;;;20.90;99.90;;;;;;5154555;27;20085;-56
2021/08/20 12:19:22;;;;;;;16.20;11.63;;;20.80;99.90;;;;;;5154233;27;20083;-56
2021/08/20 12:22:03;;;;;;;14.55;13.00;;;20.80;99.90;;;;;;5154213;27;20428;-56
2021/08/20 12:24:41;;;;;;;17.33;14.02;;;20.80;99.90;;;;;;5154214;27;20046;-56
2021/08/20 12:27:12;;;;;;;18.75;14.15;;;20.80;99.90;;;;;;5153908;27;20035;-56
2021/08/20 12:29:39;;;;;;;19.63;13.60;;;20.90;99.90;;;;;;5154346;27;20046;-56
2021/08/20 12:32:05;;;;;;;17.65;11.45;;;20.90;99.90;;;;;;5154067;27;20125;-56